Time;durP1;ratioP1;P1;durP2;ratioP2;P2;SDS_P1;SDS_P2;PMS_P1;PMS_P2;Temp;Humidity;BMP_temperature;BMP_pressure;BME280_temperature;BME280_humidity;BME280_pressure;Samples;Min_cycle;Max_cycle;Signal;HPM_P1;HPM_P2
2021/06/18 00:02:25;;;;;;;7.15;3.87;;;;;;;17.58;71.64;100613.84;1690322;84;21017;-78
2021/06/18 00:04:52;;;;;;;8.38;3.52;;;;;;;17.54;71.74;100609.64;1690942;84;21093;-78
2021/06/18 00:07:20;;;;;;;7.40;3.22;;;;;;;17.50;71.93;100605.44;1690369;84;21145;-78
2021/06/18 00:09:46;;;;;;;4.50;3.15;;;;;;;17.47;71.93;100605.63;1690641;84;21578;-77
2021/06/18 00:12:13;;;;;;;7.50;3.60;;;;;;;17.44;71.92;100606.66;1690466;84;21104;-77
2021/06/18 00:14:41;;;;;;;10.25;3.40;;;;;;;17.42;71.80;100615.69;1690659;84;21531;-76
2021/06/18 00:17:08;;;;;;;8.58;2.98;;;;;;;17.37;71.93;100622.12;1666195;84;21047;-76
2021/06/18 00:19:35;;;;;;;6.65;3.55;;;;;;;17.35;71.75;100609.86;1660045;85;21365;-80
2021/06/18 00:22:04;;;;;;;6.37;3.17;;;;;;;17.31;71.65;100606.98;1659819;85;21119;-77
2021/06/18 00:24:31;;;;;;;5.62;3.50;;;;;;;17.27;71.77;100602.29;1660259;86;21070;-78
2021/06/18 00:26:58;;;;;;;11.88;3.60;;;;;;;17.23;71.69;100600.78;1659840;85;21059;-76
2021/06/18 00:29:25;;;;;;;8.00;3.52;;;;;;;17.19;71.81;100595.23;1659926;85;21637;-76
2021/06/18 00:31:52;;;;;;;4.90;3.50;;;;;;;17.17;71.67;100595.80;1685489;84;21244;-77
2021/06/18 00:34:19;;;;;;;7.62;3.60;;;;;;;17.12;71.77;100600.53;1690658;84;21100;-77
2021/06/18 00:36:46;;;;;;;9.15;3.40;;;;;;;17.08;71.95;100606.95;1690483;84;21068;-78
2021/06/18 00:39:13;;;;;;;7.00;3.42;;;;;;;17.03;71.87;100599.23;1690537;84;21053;-79
2021/06/18 00:41:42;;;;;;;6.87;2.90;;;;;;;16.99;71.72;100607.00;1690667;84;21131;-78
2021/06/18 00:44:10;;;;;;;7.72;2.70;;;;;;;16.94;71.77;100597.94;1690601;84;21854;-78
2021/06/18 00:46:36;;;;;;;11.50;3.10;;;;;;;16.91;71.74;100604.78;1685789;84;21068;-78
2021/06/18 00:49:03;;;;;;;5.58;3.33;;;;;;;16.88;71.82;100595.62;1685649;85;21044;-79
2021/06/18 00:51:30;;;;;;;6.62;3.37;;;;;;;16.86;71.60;100593.52;1681619;85;21030;-77
2021/06/18 00:53:57;;;;;;;7.15;2.85;;;;;;;16.83;71.54;100595.50;1681728;84;21046;-76
2021/06/18 00:56:24;;;;;;;5.17;2.90;;;;;;;16.80;71.56;100594.35;1682019;85;21120;-77
2021/06/18 00:58:53;;;;;;;11.22;3.20;;;;;;;16.77;71.67;100592.66;1677314;85;21042;-75
2021/06/18 01:01:19;;;;;;;8.28;2.50;;;;;;;16.76;71.46;100594.95;1681629;85;21113;-76
2021/06/18 01:03:47;;;;;;;5.72;2.90;;;;;;;16.72;71.47;100593.39;1681525;85;21042;-74
2021/06/18 01:06:21;;;;;;;7.72;2.70;;;;;;;16.69;71.43;100592.24;1681769;85;21033;-73
2021/06/18 01:09:03;;;;;;;6.40;2.70;;;;;;;16.65;71.22;100592.87;1680793;85;21338;-73
2021/06/18 01:11:54;;;;;;;7.25;2.75;;;;;;;16.62;71.27;100591.72;1652955;86;21561;-73
2021/06/18 01:14:38;;;;;;;5.30;2.98;;;;;;;16.59;71.19;100587.91;1716018;83;27839;-73
2021/06/18 01:17:26;;;;;;;4.00;2.52;;;;;;;16.56;71.14;100586.73;1715889;83;21046;-75
2021/06/18 01:20:20;;;;;;;8.30;2.72;;;;;;;16.53;71.24;100583.77;1715623;82;21141;-75
2021/06/18 01:22:48;;;;;;;4.17;2.40;;;;;;;16.49;71.17;100586.20;1656708;86;21560;-75
2021/06/18 01:25:46;;;;;;;4.47;2.58;;;;;;;16.47;71.23;100582.80;1671885;85;21089;-76
2021/06/18 01:28:45;;;;;;;8.00;2.50;;;;;;;16.44;71.10;100585.59;1704390;83;21059;-77
2021/06/18 01:31:18;;;;;;;5.10;2.33;;;;;;;16.43;71.10;100581.23;1720119;83;21049;-75
2021/06/18 01:33:48;;;;;;;6.53;2.05;;;;;;;16.40;71.24;100581.38;1718138;83;21097;-76
2021/06/18 01:36:15;;;;;;;9.78;2.25;;;;;;;16.38;71.31;100585.95;1717415;83;21113;-76
2021/06/18 01:38:45;;;;;;;4.95;2.27;;;;;;;16.35;71.20;100582.11;1689050;83;21053;-76
2021/06/18 01:41:21;;;;;;;10.43;2.42;;;;;;;16.33;70.98;100578.22;1718028;83;21036;-75
2021/06/18 01:43:46;;;;;;;5.60;2.75;;;;;;;16.32;70.95;100578.30;1718349;83;21025;-76
2021/06/18 01:46:15;;;;;;;3.27;2.30;;;;;;;16.31;70.87;100580.55;1714547;82;21089;-78
2021/06/18 01:48:46;;;;;;;6.70;2.20;;;;;;;16.29;70.74;100577.14;1712660;83;21142;-78
2021/06/18 01:51:13;;;;;;;4.28;2.20;;;;;;;16.26;70.72;100576.81;1714339;83;26088;-79
2021/06/18 01:53:43;;;;;;;5.10;2.30;;;;;;;16.25;70.68;100572.92;1717546;83;21013;-78
2021/06/18 01:56:18;;;;;;;8.78;2.05;;;;;;;16.23;70.65;100576.98;1689742;83;21060;-79
2021/06/18 01:58:48;;;;;;;9.45;2.30;;;;;;;16.23;70.64;100573.47;1717767;83;21056;-78
2021/06/18 02:01:15;;;;;;;7.05;2.20;;;;;;;16.23;70.57;100577.46;1717699;83;21857;-80
2021/06/18 02:03:44;;;;;;;10.05;2.45;;;;;;;16.22;70.57;100573.95;1717797;83;21080;-80
2021/06/18 02:06:11;;;;;;;6.22;2.02;;;;;;;16.24;70.54;100583.15;1717673;83;21056;-79
2021/06/18 02:08:39;;;;;;;8.28;2.42;;;;;;;16.24;70.80;100579.16;1717641;83;21052;-79
2021/06/18 02:11:07;;;;;;;6.08;2.05;;;;;;;16.23;70.82;100575.66;1717695;83;21064;-77
2021/06/18 02:13:34;;;;;;;5.97;2.25;;;;;;;16.25;70.41;100574.25;1717385;83;21142;-79
2021/06/18 02:16:01;;;;;;;9.90;2.30;;;;;;;16.25;70.15;100571.59;1717642;83;21127;-76
2021/06/18 02:18:28;;;;;;;5.15;2.02;;;;;;;16.26;70.54;100574.15;1717407;83;21590;-78
2021/06/18 02:20:57;;;;;;;7.90;2.20;;;;;;;16.27;70.05;100567.06;1717271;83;21060;-78
2021/06/18 02:23:27;;;;;;;5.40;2.40;;;;;;;16.28;69.84;100560.79;1717262;83;21068;-78
2021/06/18 02:25:59;;;;;;;2.22;1.98;;;;;;;16.28;69.77;100560.31;1718177;83;21167;-78
2021/06/18 02:28:26;;;;;;;7.35;2.27;;;;;;;16.30;69.88;100561.57;1689091;83;21103;-78
2021/06/18 02:30:54;;;;;;;5.50;2.45;;;;;;;16.31;69.74;100573.91;1715186;83;21076;-78
2021/06/18 02:33:22;;;;;;;6.58;2.22;;;;;;;16.34;69.54;100577.75;1712253;83;21031;-77
2021/06/18 02:35:50;;;;;;;8.08;2.00;;;;;;;16.35;69.54;100574.13;1712450;82;21046;-77
2021/06/18 02:38:17;;;;;;;5.72;1.80;;;;;;;16.39;69.59;100588.98;1712126;82;21128;-77
2021/06/18 02:40:45;;;;;;;7.10;1.80;;;;;;;16.43;69.38;100591.02;1712399;83;21033;-77
2021/06/18 02:43:12;;;;;;;6.37;2.00;;;;;;;16.46;69.12;100593.02;1712404;83;21090;-76
2021/06/18 02:45:39;;;;;;;2.70;1.85;;;;;;;16.51;68.92;100594.95;1678009;84;21631;-75
2021/06/18 02:48:24;;;;;;;6.45;2.12;;;;;;;16.55;69.07;100596.52;1712478;83;21788;-77
2021/06/18 02:51:06;;;;;;;5.58;2.20;;;;;;;16.62;68.76;100600.17;1677971;85;21207;-77
2021/06/18 02:53:54;;;;;;;6.20;2.45;;;;;;;16.68;68.98;100597.16;1677788;85;21120;-77
2021/06/18 02:56:44;;;;;;;4.47;2.02;;;;;;;16.75;68.15;100594.58;1675111;85;21033;-78
2021/06/18 02:59:42;;;;;;;9.23;1.82;;;;;;;16.83;67.37;100603.00;1706505;83;21069;-72
2021/06/18 03:02:14;;;;;;;4.72;2.00;;;;;;;16.90;67.23;100604.38;1702823;83;21572;-82
2021/06/18 03:04:44;;;;;;;5.25;2.45;;;;;;;16.98;67.06;100604.81;1701850;83;21106;-81
2021/06/18 03:07:15;;;;;;;7.67;2.17;;;;;;;17.07;66.87;100611.43;1706052;83;21046;-80
2021/06/18 03:09:51;;;;;;;3.08;1.85;;;;;;;17.17;67.33;100615.75;1685745;83;21010;-80
2021/06/18 03:12:20;;;;;;;4.70;1.75;;;;;;;17.26;66.21;100615.70;1683655;85;21583;-82
2021/06/18 03:14:47;;;;;;;3.33;1.98;;;;;;;17.34;65.55;100615.63;1674059;85;21569;-85
2021/06/18 03:17:18;;;;;;;6.45;2.10;;;;;;;17.38;65.23;100610.52;1707711;83;21583;-84
2021/06/18 03:19:52;;;;;;;8.38;2.83;;;;;;;17.50;64.90;100621.41;1711707;82;21025;-85
2021/06/18 03:22:20;;;;;;;7.85;2.22;;;;;;;17.57;64.76;100614.30;1712353;83;21078;-83
2021/06/18 03:24:47;;;;;;;5.80;1.87;;;;;;;17.67;64.38;100607.98;1702385;83;21536;-83
2021/06/18 03:27:14;;;;;;;5.90;2.27;;;;;;;17.77;64.06;100606.47;1712305;83;21137;-82
2021/06/18 03:29:42;;;;;;;9.70;1.67;;;;;;;17.88;63.80;100603.69;1712524;83;21074;-82
2021/06/18 03:32:09;;;;;;;4.12;1.77;;;;;;;17.95;63.68;100609.87;1674040;83;21108;-80
2021/06/18 03:34:36;;;;;;;4.33;2.05;;;;;;;18.04;63.07;100605.81;1672281;85;21114;-82
2021/06/18 03:37:04;;;;;;;4.87;1.80;;;;;;;18.11;62.94;100611.14;1672088;85;21628;-84
2021/06/18 03:39:31;;;;;;;5.00;2.12;;;;;;;18.20;62.85;100606.59;1683528;85;21674;-83
2021/06/18 03:41:59;;;;;;;4.03;1.90;;;;;;;18.32;62.20;100610.30;1686725;83;21122;-82
2021/06/18 03:44:26;;;;;;;5.17;2.00;;;;;;;18.42;61.75;100602.58;1704505;84;20994;-82
2021/06/18 03:46:53;;;;;;;5.50;2.30;;;;;;;18.51;61.69;100599.34;1693192;83;21131;-81
2021/06/18 03:49:24;;;;;;;6.83;3.00;;;;;;;18.62;61.26;100604.02;1725474;83;21156;-81
2021/06/18 03:51:49;;;;;;;4.22;2.00;;;;;;;18.71;60.93;100598.09;1725302;83;21057;-82
2021/06/18 03:54:16;;;;;;;13.60;1.90;;;;;;;18.84;60.40;100604.40;1725030;83;22422;-84
2021/06/18 03:56:48;;;;;;;7.90;2.02;;;;;;;18.94;59.96;100600.66;1724923;83;21092;-83
2021/06/18 03:59:15;;;;;;;9.60;1.82;;;;;;;19.05;59.51;100599.48;1724949;83;21060;-82
2021/06/18 04:01:43;;;;;;;2.72;1.80;;;;;;;19.18;59.50;100610.69;1698634;83;21136;-82
2021/06/18 04:04:11;;;;;;;6.35;2.05;;;;;;;19.32;59.04;100606.63;1690151;84;21103;-81
2021/06/18 04:06:38;;;;;;;4.67;2.00;;;;;;;19.47;58.11;100607.45;1690409;84;21694;-82
2021/06/18 04:09:05;;;;;;;4.75;2.15;;;;;;;19.61;57.59;100610.04;1690159;84;21065;-82
2021/06/18 04:11:34;;;;;;;7.97;1.87;;;;;;;19.70;57.63;100609.45;1692934;84;21046;-82
2021/06/18 04:14:02;;;;;;;11.43;2.02;;;;;;;19.85;57.72;100614.25;1666349;84;21147;-82
2021/06/18 04:16:28;;;;;;;5.28;1.80;;;;;;;20.03;56.82;100608.59;1691949;84;21057;-83
2021/06/18 04:18:55;;;;;;;5.47;2.00;;;;;;;20.15;56.59;100612.23;1690568;84;21124;-82
2021/06/18 04:21:22;;;;;;;6.92;1.90;;;;;;;20.26;56.49;100613.67;1690840;84;21068;-82
2021/06/18 04:23:50;;;;;;;4.10;1.85;;;;;;;20.39;55.80;100611.02;1690272;84;21582;-86
2021/06/18 04:26:23;;;;;;;5.70;1.90;;;;;;;20.53;55.80;100608.20;1690301;84;21072;-84
2021/06/18 04:28:50;;;;;;;4.95;1.70;;;;;;;20.69;54.49;100606.17;1690097;84;21085;-81
2021/06/18 04:31:18;;;;;;;2.40;1.72;;;;;;;20.86;54.59;100602.27;1689999;84;21976;-86
2021/06/18 04:33:45;;;;;;;6.15;2.00;;;;;;;21.08;54.52;100612.28;1690040;84;21059;-84
2021/06/18 04:36:13;;;;;;;5.28;1.65;;;;;;;21.36;54.16;100611.58;1690480;84;21075;-84
2021/06/18 04:38:43;;;;;;;11.78;1.80;;;;;;;21.64;53.16;100601.00;1689943;84;21022;-74
2021/06/18 04:41:10;;;;;;;8.90;2.00;;;;;;;21.90;52.59;100600.83;1690342;84;21051;-73
2021/06/18 04:43:37;;;;;;;5.95;1.75;;;;;;;22.13;51.60;100601.73;1689912;84;21152;-75
2021/06/18 04:46:04;;;;;;;5.10;1.52;;;;;;;22.32;50.77;100602.05;1654344;86;21636;-75
2021/06/18 04:48:31;;;;;;;6.08;1.87;;;;;;;22.47;50.51;100600.45;1677482;85;21167;-75
2021/06/18 04:50:58;;;;;;;9.88;2.30;;;;;;;22.59;50.35;100608.86;1716839;82;21148;-74
2021/06/18 04:53:25;;;;;;;8.03;1.42;;;;;;;22.71;49.69;100607.89;1713498;82;21623;-76
2021/06/18 04:55:53;;;;;;;11.35;1.85;;;;;;;22.89;49.17;100615.42;1691416;84;21955;-74
2021/06/18 04:58:20;;;;;;;6.72;1.77;;;;;;;23.04;49.13;100608.84;1724957;82;21128;-78
2021/06/18 05:00:47;;;;;;;6.30;1.90;;;;;;;23.20;48.26;100611.98;1732771;82;21030;-78
2021/06/18 05:03:14;;;;;;;7.92;2.00;;;;;;;23.33;48.28;100606.92;1711624;83;21081;-78
2021/06/18 05:05:42;;;;;;;7.80;2.02;;;;;;;23.47;47.66;100602.61;1711631;83;21100;-82
2021/06/18 05:08:08;;;;;;;5.80;2.05;;;;;;;23.63;47.67;100610.25;1711844;83;21113;-84
2021/06/18 05:10:35;;;;;;;6.17;1.60;;;;;;;23.82;46.80;100606.87;1712182;83;21077;-81
2021/06/18 05:13:02;;;;;;;10.48;2.10;;;;;;;23.99;46.95;100606.77;1712051;83;21092;-83
2021/06/18 05:15:30;;;;;;;8.53;1.67;;;;;;;24.17;46.29;100600.30;1712435;83;21150;-83
2021/06/18 05:18:00;;;;;;;5.45;1.87;;;;;;;24.38;46.25;100597.56;1712012;82;21557;-83
2021/06/18 05:20:27;;;;;;;9.43;2.02;;;;;;;24.63;45.43;100596.29;1707618;83;21194;-82
2021/06/18 05:22:54;;;;;;;4.95;1.70;;;;;;;24.84;44.63;100593.52;1712462;83;21061;-82
2021/06/18 05:25:21;;;;;;;9.58;2.25;;;;;;;25.01;44.39;100594.70;1712088;83;21006;-82
2021/06/18 05:27:48;;;;;;;5.03;1.75;;;;;;;25.17;43.77;100591.44;1712379;83;21143;-82
2021/06/18 05:30:17;;;;;;;12.93;2.00;;;;;;;25.32;43.92;100582.84;1713553;83;21088;-82
2021/06/18 05:32:46;;;;;;;6.92;2.70;;;;;;;25.48;43.04;100586.83;1720039;83;21112;-84
2021/06/18 05:35:13;;;;;;;8.15;2.35;;;;;;;25.54;43.39;100581.72;1720027;82;21111;-81
2021/06/18 05:37:41;;;;;;;5.15;1.60;;;;;;;25.72;42.66;100583.67;1719849;83;21095;-80
2021/06/18 05:40:09;;;;;;;8.13;1.85;;;;;;;25.87;42.12;100586.83;1719887;83;21805;-82
2021/06/18 05:42:36;;;;;;;4.15;1.77;;;;;;;26.00;42.42;100587.38;1720082;83;21085;-79
2021/06/18 05:45:05;;;;;;;2.90;1.90;;;;;;;26.13;41.55;100581.12;1685147;85;21204;-80
2021/06/18 05:47:32;;;;;;;5.58;2.60;;;;;;;26.27;42.05;100580.31;1722834;82;21465;-83
2021/06/18 05:49:59;;;;;;;8.08;1.67;;;;;;;26.53;41.37;100585.91;1690264;84;21084;-82
2021/06/18 05:52:27;;;;;;;5.62;1.50;;;;;;;26.71;40.05;100591.38;1690115;84;21076;-81
2021/06/18 05:54:54;;;;;;;4.53;1.60;;;;;;;26.70;39.95;100589.69;1689987;84;21139;-72
2021/06/18 05:57:22;;;;;;;10.58;1.87;;;;;;;26.78;40.29;100592.51;1697140;84;21559;-72
2021/06/18 05:59:49;;;;;;;10.65;1.80;;;;;;;26.83;40.20;100595.59;1694628;84;21052;-76
2021/06/18 06:02:17;;;;;;;3.90;1.80;;;;;;;26.98;40.23;100595.41;1695750;84;21113;-76
2021/06/18 06:04:44;;;;;;;7.92;2.52;;;;;;;27.20;39.82;100587.92;1697905;84;21618;-77
2021/06/18 06:07:11;;;;;;;12.82;2.72;;;;;;;27.48;39.49;100589.20;1687904;84;21080;-78
2021/06/18 06:09:39;;;;;;;12.05;2.20;;;;;;;27.67;38.98;100591.72;1690116;84;21169;-75
2021/06/18 06:12:09;;;;;;;5.00;1.90;;;;;;;27.77;38.87;100588.44;1663621;85;21584;-77
2021/06/18 06:14:35;;;;;;;9.10;2.08;;;;;;;27.94;38.46;100595.34;1672292;85;21097;-77
2021/06/18 06:17:04;;;;;;;10.80;2.80;;;;;;;28.05;38.76;100589.67;1672591;85;21090;-78
2021/06/18 06:19:32;;;;;;;8.20;2.55;;;;;;;28.28;38.19;100585.08;1656841;85;21132;-78
2021/06/18 06:21:59;;;;;;;11.43;2.60;;;;;;;28.41;37.74;100581.40;1687490;84;21102;-77
2021/06/18 06:24:26;;;;;;;6.70;1.60;;;;;;;28.33;37.69;100574.61;1670350;85;21541;-78
2021/06/18 06:26:53;;;;;;;9.70;2.00;;;;;;;28.33;36.82;100596.27;1690323;84;21285;-77
2021/06/18 06:29:20;;;;;;;7.78;1.72;;;;;;;28.16;37.65;100592.13;1666619;85;21565;-76
2021/06/18 06:31:47;;;;;;;14.53;1.90;;;;;;;28.09;37.33;100595.12;1668025;85;21058;-77
2021/06/18 06:34:14;;;;;;;13.53;2.12;;;;;;;27.98;38.04;100596.73;1687085;84;21001;-79
2021/06/18 06:36:41;;;;;;;10.58;1.90;;;;;;;27.94;38.26;100596.70;1672634;85;21074;-77
2021/06/18 06:39:08;;;;;;;4.60;1.62;;;;;;;28.00;37.72;100594.22;1671989;85;21074;-77
2021/06/18 06:41:35;;;;;;;5.67;1.52;;;;;;;27.98;38.23;100598.09;1671725;85;21054;-76
2021/06/18 06:44:04;;;;;;;4.83;2.08;;;;;;;28.12;38.39;100589.37;1657773;85;21022;-75
2021/06/18 06:46:32;;;;;;;9.95;1.70;;;;;;;28.39;37.79;100584.30;1667413;84;21141;-75
2021/06/18 06:49:01;;;;;;;7.00;2.50;;;;;;;28.54;37.70;100587.26;1675748;85;21132;-77
2021/06/18 06:51:28;;;;;;;4.70;2.15;;;;;;;28.59;37.65;100575.42;1685008;84;21557;-78
2021/06/18 06:53:55;;;;;;;9.40;2.20;;;;;;;28.73;37.40;100574.46;1684872;84;21056;-75
2021/06/18 06:56:22;;;;;;;5.40;1.65;;;;;;;28.91;36.84;100575.20;1677767;83;21592;-74
2021/06/18 06:58:51;;;;;;;2.00;1.30;;;;;;;28.91;36.47;100567.06;1702550;83;21086;-76
2021/06/18 07:01:19;;;;;;;8.25;1.80;;;;;;;28.89;36.77;100569.09;1715417;82;21125;-75
2021/06/18 07:03:46;;;;;;;7.25;1.80;;;;;;;28.98;36.88;100562.67;1712138;83;21541;-77
2021/06/18 07:06:14;;;;;;;8.35;1.80;;;;;;;29.14;36.71;100570.54;1711295;83;21065;-76
2021/06/18 07:08:42;;;;;;;3.83;1.90;;;;;;;29.28;36.49;100568.52;1716613;83;21101;-76
2021/06/18 07:11:09;;;;;;;5.60;1.57;;;;;;;29.50;35.83;100565.66;1703074;84;21203;-75
2021/06/18 07:13:36;;;;;;;9.98;2.25;;;;;;;29.77;35.64;100562.27;1711817;83;21121;-75
2021/06/18 07:16:04;;;;;;;4.70;1.95;;;;;;;30.04;35.24;100560.52;1711942;83;21041;-75
2021/06/18 07:18:35;;;;;;;4.60;1.32;;;;;;;30.23;34.67;100568.81;1711848;82;21065;-75
2021/06/18 07:21:03;;;;;;;9.63;1.95;;;;;;;30.05;34.88;100562.76;1712119;83;21140;-74
2021/06/18 07:23:30;;;;;;;9.65;1.77;;;;;;;29.85;35.31;100568.55;1717507;83;21179;-76
2021/06/18 07:25:58;;;;;;;5.03;1.65;;;;;;;29.87;35.29;100566.51;1719957;83;21128;-74
2021/06/18 07:28:25;;;;;;;8.25;1.60;;;;;;;29.82;34.70;100564.83;1717879;83;21104;-75
2021/06/18 07:30:52;;;;;;;7.95;1.52;;;;;;;29.61;35.12;100557.67;1682274;84;21595;-75
2021/06/18 07:33:18;;;;;;;11.40;2.05;;;;;;;29.22;35.85;100558.36;1676620;85;21161;-76
2021/06/18 07:35:46;;;;;;;4.97;1.85;;;;;;;29.03;37.39;100558.98;1672765;85;21158;-75
2021/06/18 07:38:13;;;;;;;5.97;1.92;;;;;;;29.12;36.51;100560.36;1671117;85;21123;-76
2021/06/18 07:40:41;;;;;;;6.67;1.55;;;;;;;29.20;36.74;100554.97;1668867;84;21078;-74
2021/06/18 07:43:08;;;;;;;4.33;1.67;;;;;;;29.35;36.33;100553.27;1673311;85;21100;-75
2021/06/18 07:45:36;;;;;;;9.43;1.77;;;;;;;29.41;35.82;100555.31;1672058;85;21639;-75
2021/06/18 07:48:09;;;;;;;3.20;1.40;;;;;;;29.54;36.57;100562.08;1677728;85;21174;-77
2021/06/18 07:50:35;;;;;;;9.08;1.35;;;;;;;29.70;36.25;100563.46;1709156;83;21065;-76
2021/06/18 07:53:02;;;;;;;8.68;1.72;;;;;;;29.88;35.73;100572.27;1677015;84;21777;-75
2021/06/18 07:55:30;;;;;;;4.75;1.65;;;;;;;30.10;35.65;100569.87;1677685;84;21084;-75
2021/06/18 07:57:57;;;;;;;4.95;1.67;;;;;;;30.39;35.05;100575.23;1673428;84;21044;-74
2021/06/18 08:00:24;;;;;;;5.00;1.40;;;;;;;30.48;34.23;100574.18;1674773;84;21144;-76
2021/06/18 08:02:51;;;;;;;12.63;2.08;;;;;;;30.40;34.67;100572.34;1666549;83;21562;-74
2021/06/18 08:05:18;;;;;;;10.63;1.70;;;;;;;30.36;35.04;100579.16;1671102;84;21069;-75
2021/06/18 08:07:47;;;;;;;9.45;1.80;;;;;;;30.23;34.58;100574.25;1709353;82;21088;-76
2021/06/18 08:10:16;;;;;;;7.83;1.50;;;;;;;30.14;35.04;100575.30;1716008;82;21093;-76
2021/06/18 08:12:46;;;;;;;11.65;2.00;;;;;;;30.04;35.02;100575.98;1677889;85;21018;-75
2021/06/18 08:15:13;;;;;;;7.08;1.52;;;;;;;29.93;35.09;100583.97;1705176;82;21073;-76
2021/06/18 08:17:41;;;;;;;10.72;1.67;;;;;;;29.71;35.20;100595.55;1713917;82;21056;-75
2021/06/18 08:20:09;;;;;;;7.87;1.70;;;;;;;29.69;36.34;100590.28;1676760;84;21104;-77
2021/06/18 08:22:36;;;;;;;11.05;1.55;;;;;;;29.85;36.10;100592.14;1680521;84;21076;-75
2021/06/18 08:25:05;;;;;;;8.13;1.50;;;;;;;30.06;35.66;100590.23;1680338;84;21128;-75
2021/06/18 08:27:32;;;;;;;6.17;1.60;;;;;;;30.22;35.34;100605.13;1715957;82;21089;-80
2021/06/18 08:29:59;;;;;;;12.23;1.92;;;;;;;30.31;34.67;100595.97;1715732;82;21626;-81
2021/06/18 08:32:25;;;;;;;8.65;1.77;;;;;;;30.50;34.66;100600.67;1709549;83;21084;-80
2021/06/18 08:34:52;;;;;;;10.28;2.08;;;;;;;30.68;33.56;100599.08;1709767;83;21033;-81
2021/06/18 08:37:19;;;;;;;12.65;1.57;;;;;;;30.66;33.58;100591.09;1712599;82;21126;-80
2021/06/18 08:39:47;;;;;;;4.72;1.62;;;;;;;30.66;34.11;100581.58;1714512;82;21133;-81
2021/06/18 08:42:14;;;;;;;11.22;1.65;;;;;;;30.69;33.67;100579.88;1717287;83;21092;-80
2021/06/18 08:44:45;;;;;;;9.45;1.92;;;;;;;30.82;33.63;100577.94;1717288;83;21054;-80
2021/06/18 08:47:10;;;;;;;5.20;1.77;;;;;;;30.93;33.43;100576.73;1717775;82;21014;-80
2021/06/18 08:49:37;;;;;;;9.95;1.52;;;;;;;30.84;33.99;100572.33;1692297;84;21159;-80
2021/06/18 08:52:05;;;;;;;8.98;1.50;;;;;;;30.97;34.04;100575.34;1718468;83;21093;-79
2021/06/18 08:54:42;;;;;;;12.88;1.57;;;;;;;30.97;34.04;100575.34;1697576;83;21613;-79
2021/06/18 08:57:15;;;;;;;8.53;1.90;;;;;;;31.22;33.23;100584.69;1701539;82;21073;-75
2021/06/18 09:02:33;;;;;;;8.23;1.75;;;;;;;31.56;33.34;100587.89;1796160;79;22751;-76
2021/06/18 09:05:09;;;;;;;6.65;1.72;;;;;;;31.69;32.83;100586.41;1767964;80;21587;-78
2021/06/18 09:07:58;;;;;;;11.12;1.50;;;;;;;31.64;31.79;100591.56;1769485;80;21096;-77
2021/06/18 09:10:41;;;;;;;9.23;1.62;;;;;;;31.30;31.88;100594.17;1763429;80;20989;-77
2021/06/18 09:13:23;;;;;;;6.65;1.20;;;;;;;31.23;32.78;100590.48;1769888;80;21060;-75
2021/06/18 09:15:54;;;;;;;6.97;1.70;;;;;;;31.51;32.49;100587.56;1777029;80;21520;-77
2021/06/18 09:18:26;;;;;;;12.28;1.85;;;;;;;31.62;32.44;100588.18;1761079;80;21042;-78
2021/06/18 09:21:07;;;;;;;6.42;1.47;;;;;;;31.62;32.44;100588.18;1770187;80;22114;-77
2021/06/18 09:23:45;;;;;;;6.72;1.62;;;;;;;31.81;31.70;100588.17;1773407;80;21051;-77
2021/06/18 09:26:33;;;;;;;10.98;1.82;;;;;;;31.85;31.49;100576.73;1771828;80;21140;-75
2021/06/18 09:29:14;;;;;;;8.00;1.85;;;;;;;31.77;31.78;100589.91;1771253;80;21025;-76
2021/06/18 09:31:53;;;;;;;8.78;1.87;;;;;;;31.70;31.38;100588.97;1771593;80;21623;-76
2021/06/18 09:35:12;;;;;;;6.05;1.40;;;;;;;31.61;31.93;100586.47;1765295;80;21151;-78
2021/06/18 09:37:38;;;;;;;9.98;1.65;;;;;;;31.63;31.71;100578.97;1750534;80;22176;-78
2021/06/18 09:40:15;;;;;;;8.63;1.60;;;;;;;31.50;32.14;100577.72;1765105;80;21603;-78
2021/06/18 09:42:54;;;;;;;14.05;1.70;;;;;;;31.38;32.49;100579.13;1760278;80;21027;-78
2021/06/18 09:45:32;;;;;;;5.33;1.65;;;;;;;31.46;32.55;100579.11;1757324;80;21438;-76
2021/06/18 09:48:16;;;;;;;10.25;1.37;;;;;;;31.66;32.61;100569.09;1760397;80;21145;-75
2021/06/18 09:50:48;;;;;;;5.60;1.30;;;;;;;31.76;31.96;100557.42;1758551;80;21027;-78
2021/06/18 09:53:22;;;;;;;8.20;1.40;;;;;;;32.06;32.43;100552.04;1766393;80;21057;-76
2021/06/18 09:56:08;;;;;;;7.30;1.57;;;;;;;32.39;31.96;100543.82;1770270;80;21489;-76
2021/06/18 09:58:44;;;;;;;7.42;1.50;;;;;;;32.73;31.61;100549.19;1759732;80;22106;-76
2021/06/18 10:01:25;;;;;;;19.52;2.22;;;;;;;32.90;31.19;100557.12;1762081;80;21915;-76
2021/06/18 10:04:14;;;;;;;13.70;1.67;;;;;;;32.84;30.77;100553.83;1747165;80;21588;-76
2021/06/18 10:06:42;;;;;;;8.70;1.70;;;;;;;32.73;31.33;100555.16;1757245;80;21077;-76
2021/06/18 10:09:12;;;;;;;7.53;1.70;;;;;;;32.51;31.03;100543.34;1754290;80;21108;-74
2021/06/18 10:11:42;;;;;;;8.90;1.65;;;;;;;32.24;31.13;100552.52;1756962;80;21102;-75
2021/06/18 10:14:08;;;;;;;5.30;1.60;;;;;;;32.12;31.86;100555.39;1754956;80;21149;-75
2021/06/18 10:16:36;;;;;;;17.73;2.17;;;;;;;32.31;31.88;100549.88;1751704;80;21126;-75
2021/06/18 10:19:04;;;;;;;18.12;2.25;;;;;;;32.40;31.49;100543.30;1739303;80;21148;-76
2021/06/18 10:21:36;;;;;;;7.85;1.60;;;;;;;32.34;31.73;100542.16;1749503;80;21089;-76
2021/06/18 10:24:07;;;;;;;3.55;1.57;;;;;;;32.42;32.24;100543.09;1756248;80;21090;-77
2021/06/18 10:26:34;;;;;;;3.58;1.47;;;;;;;32.58;31.28;100537.48;1760211;80;21103;-76
2021/06/18 10:29:03;;;;;;;15.18;2.00;;;;;;;32.57;31.57;100533.05;1701507;83;21097;-75
2021/06/18 10:31:35;;;;;;;7.95;1.70;;;;;;;32.67;31.77;100538.20;1749167;80;21042;-75
2021/06/18 10:34:16;;;;;;;8.25;1.62;;;;;;;32.65;30.93;100547.95;1717097;82;21062;-76
2021/06/18 10:36:39;;;;;;;8.55;1.55;;;;;;;32.25;31.59;100548.74;1750745;80;21666;-75
2021/06/18 10:39:12;;;;;;;6.00;1.40;;;;;;;32.06;32.52;100543.87;1755667;80;21718;-75
2021/06/18 10:41:48;;;;;;;4.62;1.90;;;;;;;32.07;32.18;100548.27;1742436;80;21062;-79
2021/06/18 10:44:47;;;;;;;7.87;1.72;;;;;;;32.03;32.68;100539.64;1750907;80;21046;-78
2021/06/18 10:47:36;;;;;;;6.05;1.50;;;;;;;31.97;32.94;100545.30;1749294;80;21466;-77
2021/06/18 10:50:02;;;;;;;8.78;1.75;;;;;;;31.60;33.05;100554.84;1684962;84;21482;-78
2021/06/18 10:52:42;;;;;;;11.93;1.75;;;;;;;31.11;33.93;100547.89;1744568;80;21469;-78
2021/06/18 10:55:10;;;;;;;6.15;1.80;;;;;;;31.02;34.87;100544.38;1742368;80;21089;-77
2021/06/18 10:57:52;;;;;;;5.87;1.90;;;;;;;31.13;34.59;100545.84;1759746;80;21041;-79
2021/06/18 11:00:22;;;;;;;11.08;1.98;;;;;;;31.35;34.40;100540.05;1754673;80;21567;-77
2021/06/18 11:02:50;;;;;;;8.67;2.07;;;;;;;31.47;34.18;100534.55;1782421;80;21582;-77
2021/06/18 11:05:32;;;;;;;6.58;1.87;;;;;;;31.56;34.08;100536.17;1746047;82;21228;-79
2021/06/18 11:08:18;;;;;;;14.10;2.60;;;;;;;31.72;33.78;100535.67;1699952;83;21656;-78
2021/06/18 11:10:45;;;;;;;8.88;1.77;;;;;;;31.71;33.60;100528.55;1753087;80;21586;-78
2021/06/18 11:13:13;;;;;;;9.45;1.98;;;;;;;31.47;34.00;100526.88;1769755;80;21081;-78
2021/06/18 11:15:44;;;;;;;7.20;1.80;;;;;;;31.42;34.60;100520.62;1767985;80;21069;-82
2021/06/18 11:18:18;;;;;;;11.60;2.00;;;;;;;31.60;34.50;100518.10;1767947;80;21119;-80
2021/06/18 11:20:49;;;;;;;9.03;1.98;;;;;;;31.86;33.61;100510.33;1780220;80;21089;-79
2021/06/18 11:23:33;;;;;;;14.10;1.87;;;;;;;31.87;33.42;100511.20;1780867;80;21565;-78
2021/06/18 11:26:09;;;;;;;12.23;2.00;;;;;;;31.71;33.37;100514.94;1781144;80;21587;-80
2021/06/18 11:28:40;;;;;;;6.00;1.80;;;;;;;31.56;34.38;100513.03;1714168;83;21453;-79
2021/06/18 11:31:40;;;;;;;3.85;1.65;;;;;;;31.48;34.37;100510.38;1752357;81;21163;-78
2021/06/18 11:34:09;;;;;;;7.50;1.60;;;;;;;31.29;34.18;100512.20;1711279;83;21053;-77
2021/06/18 11:36:41;;;;;;;11.88;2.00;;;;;;;31.14;34.91;100517.08;1711909;82;21128;-78
2021/06/18 11:39:15;;;;;;;7.87;2.25;;;;;;;31.07;36.02;100508.48;1775156;80;21116;-76
2021/06/18 11:41:47;;;;;;;8.75;1.92;;;;;;;31.33;34.99;100508.09;1779697;80;21080;-76
2021/06/18 11:44:16;;;;;;;;;;;;;;;31.34;34.08;100508.44;1783188;80;21110;-78